METAR AND TAF INFORMATION
METAR FOR LGPZ
ADDS - METARS form results

(1631 UTC 21 August 2019)
Data provider http://aviationweather.gov/metar/data/
 
METAR text: LGPZ 211620Z 24008KT CAVOK 27/22 Q1014
Conditions at: LGPZ (PREVEZA/AKTION , GR) observed 1620 UTC 21 August 2019
Temperature: 27.0°C (81°F)
Dewpoint: 22.0°C (72°F) [RH = 74%]
Pressure (altimeter): 29.94 inches Hg (1014.0 mb)
Winds: from the WSW (240 degrees) at 9 MPH (8 knots; 4.1 m/s)
Visibility: 6 or more miles (10+ km)
Ceiling: ceiling and visibility are OK
Clouds: unknown
Weather: no significant weather observed at this time

METAR text: LGPZ 211550Z 24008KT CAVOK 28/22 Q1014
Conditions at: LGPZ (PREVEZA/AKTION , GR) observed 1550 UTC 21 August 2019
Temperature: 28.0°C (82°F)
Dewpoint: 22.0°C (72°F) [RH = 70%]
Pressure (altimeter): 29.94 inches Hg (1014.0 mb)
Winds: from the WSW (240 degrees) at 9 MPH (8 knots; 4.1 m/s)
Visibility: 6 or more miles (10+ km)
Ceiling: ceiling and visibility are OK
Clouds: unknown
Weather: no significant weather observed at this time

Forecast for: LGPZ (PREVEZA/AKTION , GR)
Text: TAF LGPZ 211100Z 2112/2212 29012KT 9999 FEW025
Forecast period: 1200 to 1800 UTC 21 August 2019
Forecast type: FROM: standard forecast or significant change
Winds: from the WNW (290 degrees) at 14 MPH (12 knots; 6.2 m/s)
Visibility: 6 or more miles 10+ km)
Ceiling: at least 12,000 feet AGL
Clouds: few clouds at 2500 feet AGL
Weather: no significant weather forecast for this period
Text: BECMG 2118/2120 VRB03KT
Forecast period: 1800 to 2000 UTC 21 August 2019
Forecast type: BECOMING: Conditions expected to become as follows by 2000 UTC 21 August 2019
Winds: variable direction winds at 3 MPH (3 knots; 1.5 m/s)
Visibility: 6 or more miles 10+ km)
Ceiling: at least 12,000 feet AGL
Clouds: few clouds at 2500 feet AGL
Weather: no significant weather forecast for this period
Text: BECMG 2120/2122 07006KT
Forecast period: 2000 UTC 21 August 2019 to 1200 UTC 22 August 2019
Forecast type: BECOMING: Conditions expected to become as follows by 2200 UTC 21 August 2019
Winds: from the ENE (70 degrees) at 7 MPH (6 knots; 3.1 m/s)
Visibility: 6 or more miles 10+ km)
Ceiling: at least 12,000 feet AGL
Clouds: few clouds at 2500 feet AGL
Weather: no significant weather forecast for this period

 AIRPORT MAP

 RUNWAY INFORMATION
Runway 07L Runway length 9419 ft Runway width 148 ft
Runway elevation 9 ft Runway displaced threshold 0 ft Runway heading 68
Runway 25R Runway length 9419 ft Runway width 148 ft
Runway elevation 11 ft Runway displaced threshold 492 ft Runway heading 248

 AIRPORT FREQUENCIES
Type A/G Name RDO Frequency 563.7 MHZ
Type APP Name APP Frequency 120.45 MHZ
Type TWR Name TWR Frequency 120.45 MHZ

 AIRPORT NEAR NAVIGATION AIDS
Type NDB Name Preveza Frequency 353 KHZ



Powered by Heron Airways VA. All Rights Reserved © 2009 [v2.6.2]